ICAO code: LHPR | IATA code: QGY | SITA: QGYAPXH | AFTN: LHPRZPZX

Időjárási adatok

METAR LHPR 190345Z AUTO 24003KT 200V270 8000 NCD 09/09 Q1014=
TAF LHPR 190215Z 1903/1912 27005KT CAVOK BECMG 1906/1909 30012KT 9999
SCT030=
Párásság
2021-09-19 03:50:00 UTC
Hőmérséklet
9.5 °C
 
Harmatpont
9.4 °C
 
Rel. páratartalom
99%
 
QNH
1014.1 hPa
 
Szélsebesség
2.0 m/s
Max
2.8 m/s
Szélirány
240°
 
Csapadék (1 óra)
0.0 mm
 
Látótávolság
9013 m
 
RVR
>1500 m RWY30
 
1. felhőréteg mennyisége
0 octa
 
1. felhőréteg alapja
m